Time;durP1;ratioP1;P1;durP2;ratioP2;P2;SDS_P1;SDS_P2;PMS_P1;PMS_P2;Temp;Humidity;BMP_temperature;BMP_pressure;BME280_temperature;BME280_humidity;BME280_pressure;Samples;Min_cycle;Max_cycle;Signal;HPM_P1;HPM_P2
2022/05/17 00:00:54;;;;;;;;;;;15.00;99.90;;;;;;5052561;28;19936;-64
2022/05/17 00:03:21;;;;;;;;;;;15.00;99.90;;;;;;5035894;28;19929;-65
2022/05/17 00:05:48;;;;;;;;;;;14.80;99.90;;;;;;5035957;28;19925;-64
2022/05/17 00:08:16;;;;;;;;;;;14.70;99.90;;;;;;5035898;28;19931;-64
2022/05/17 00:10:44;;;;;;;;;;;14.80;99.90;;;;;;5035883;28;19932;-65
2022/05/17 00:13:11;;;;;;;;;;;14.70;99.90;;;;;;5035871;28;19925;-63
2022/05/17 00:15:39;;;;;;;;;;;14.70;99.90;;;;;;5035504;28;19947;-63
2022/05/17 00:18:06;;;;;;;;;;;14.70;99.90;;;;;;5035985;28;19982;-64
2022/05/17 00:20:33;;;;;;;;;;;14.70;99.90;;;;;;5044380;28;19933;-63
2022/05/17 00:23:02;;;;;;;;;;;14.60;99.90;;;;;;5023722;28;19972;-65
2022/05/17 00:25:30;;;;;;;;;;;14.50;99.90;;;;;;5015611;28;20297;-65
2022/05/17 00:27:57;;;;;;;;;;;14.40;99.90;;;;;;5015974;28;19975;-63
2022/05/17 00:30:24;;;;;;;;;;;14.40;99.90;;;;;;5015629;28;19939;-65
2022/05/17 00:32:50;;;;;;;;;;;14.50;99.90;;;;;;5015923;28;19929;-65
2022/05/17 00:35:17;;;;;;;;;;;14.40;99.90;;;;;;5015654;28;19948;-64
2022/05/17 00:37:44;;;;;;;;;;;14.50;99.90;;;;;;5015410;28;19929;-66
2022/05/17 00:40:11;;;;;;;;;;;14.50;99.90;;;;;;5015495;28;19982;-65
2022/05/17 00:42:40;;;;;;;;;;;14.40;99.90;;;;;;5014556;28;19971;-64
2022/05/17 00:45:07;;;;;;;;;;;14.40;99.90;;;;;;5015109;28;19929;-65
2022/05/17 00:47:37;;;;;;;;;;;14.40;99.90;;;;;;5015232;28;19936;-64
2022/05/17 00:50:05;;;;;;;;;;;14.30;99.90;;;;;;5015252;28;19944;-64
2022/05/17 00:52:34;;;;;;;;;;;14.20;99.90;;;;;;5015296;28;19932;-64
2022/05/17 00:55:04;;;;;;;;;;;14.20;99.90;;;;;;5032502;28;19932;-64
2022/05/17 00:57:33;;;;;;;;;;;14.20;99.90;;;;;;5032862;28;20385;-65
2022/05/17 01:00:02;;;;;;;;;;;14.10;99.90;;;;;;5014944;28;20032;-64
2022/05/17 01:02:30;;;;;;;;;;;14.10;99.90;;;;;;5031702;28;19925;-64
2022/05/17 01:04:57;;;;;;;;;;;14.00;99.90;;;;;;5015035;28;20324;-63
2022/05/17 01:07:26;;;;;;;;;;;14.00;99.90;;;;;;5014753;28;19933;-64
2022/05/17 01:09:53;;;;;;;;;;;13.90;99.90;;;;;;5014365;28;20004;-65
2022/05/17 01:12:20;;;;;;;;;;;13.90;99.90;;;;;;5014662;28;20285;-64
2022/05/17 01:14:58;;;;;;;;;;;13.90;99.90;;;;;;5019956;28;19929;-64
2022/05/17 01:17:27;;;;;;;;;;;14.00;99.90;;;;;;5034280;28;19921;-64
2022/05/17 01:19:53;;;;;;;;;;;14.00;99.90;;;;;;5034518;28;19929;-64
2022/05/17 01:22:22;;;;;;;;;;;14.00;99.90;;;;;;5034434;28;19925;-64
2022/05/17 01:24:49;;;;;;;;;;;14.00;99.90;;;;;;5034032;28;20442;-64
2022/05/17 01:27:17;;;;;;;;;;;14.00;99.90;;;;;;5034346;28;19925;-64
2022/05/17 01:29:44;;;;;;;;;;;13.90;99.90;;;;;;5034476;28;19936;-64
2022/05/17 01:32:12;;;;;;;;;;;13.90;99.90;;;;;;5034362;28;20347;-64
2022/05/17 01:34:39;;;;;;;;;;;13.80;99.90;;;;;;5034048;28;19931;-64
2022/05/17 01:37:06;;;;;;;;;;;13.70;99.90;;;;;;5034220;28;19928;-64
2022/05/17 01:39:35;;;;;;;;;;;13.50;99.90;;;;;;5033945;28;19925;-65
2022/05/17 01:42:01;;;;;;;;;;;13.50;99.90;;;;;;5034403;28;19924;-65
2022/05/17 01:44:28;;;;;;;;;;;13.50;99.90;;;;;;5033891;28;19932;-64
2022/05/17 01:46:55;;;;;;;;;;;13.50;99.90;;;;;;5034223;28;20011;-64
2022/05/17 01:49:22;;;;;;;;;;;13.40;99.90;;;;;;5034053;28;19925;-65
2022/05/17 01:51:48;;;;;;;;;;;13.50;99.90;;;;;;5034057;28;19925;-64
2022/05/17 01:54:15;;;;;;;;;;;13.60;99.90;;;;;;5033349;28;19925;-63
2022/05/17 01:56:43;;;;;;;;;;;13.60;99.90;;;;;;5034154;28;19929;-64
2022/05/17 01:59:12;;;;;;;;;;;13.60;99.90;;;;;;5033899;28;19947;-65
2022/05/17 02:01:39;;;;;;;;;;;13.60;99.90;;;;;;5034050;28;19925;-64
2022/05/17 02:04:06;;;;;;;;;;;13.60;99.90;;;;;;5033408;28;19957;-64
2022/05/17 02:06:33;;;;;;;;;;;13.50;99.90;;;;;;5033645;28;19924;-64
2022/05/17 02:09:00;;;;;;;;;;;13.60;99.90;;;;;;5033450;28;20020;-65
2022/05/17 02:11:26;;;;;;;;;;;13.50;99.90;;;;;;5033686;28;20344;-65
2022/05/17 02:13:55;;;;;;;;;;;13.50;99.90;;;;;;5033230;28;19925;-65
2022/05/17 02:16:21;;;;;;;;;;;13.50;99.90;;;;;;5033815;28;19925;-64
2022/05/17 02:18:48;;;;;;;;;;;13.30;99.90;;;;;;5033394;28;20396;-64
2022/05/17 02:21:15;;;;;;;;;;;13.30;99.90;;;;;;5033382;28;20362;-64
2022/05/17 02:23:42;;;;;;;;;;;13.40;99.90;;;;;;5033234;28;20396;-64
2022/05/17 02:26:08;;;;;;;;;;;13.30;99.90;;;;;;5033456;28;19971;-63
2022/05/17 02:28:36;;;;;;;;;;;13.30;99.90;;;;;;5033613;28;19932;-64
2022/05/17 02:31:04;;;;;;;;;;;13.30;99.90;;;;;;5033260;28;20020;-65
2022/05/17 02:33:31;;;;;;;;;;;13.20;99.90;;;;;;5032982;28;19928;-64
2022/05/17 02:35:58;;;;;;;;;;;13.20;99.90;;;;;;5033287;28;19925;-65
2022/05/17 02:38:26;;;;;;;;;;;13.20;99.90;;;;;;5033234;28;20031;-64
2022/05/17 02:40:53;;;;;;;;;;;13.10;99.90;;;;;;5032767;28;19924;-64
2022/05/17 02:43:19;;;;;;;;;;;13.10;99.90;;;;;;5033257;28;19928;-64
2022/05/17 02:45:46;;;;;;;;;;;13.20;99.90;;;;;;5033143;28;19928;-65
2022/05/17 02:48:15;;;;;;;;;;;13.20;99.90;;;;;;5033201;28;19970;-65
2022/05/17 02:50:41;;;;;;;;;;;13.20;99.90;;;;;;5033114;28;19929;-64
2022/05/17 02:53:08;;;;;;;;;;;13.10;99.90;;;;;;5033284;28;20348;-64
2022/05/17 02:55:35;;;;;;;;;;;13.10;99.90;;;;;;5032850;28;19967;-63
2022/05/17 02:58:02;;;;;;;;;;;13.10;99.90;;;;;;5033290;28;19931;-65
2022/05/17 03:00:28;;;;;;;;;;;13.20;99.90;;;;;;5032999;28;19924;-64
2022/05/17 03:02:57;;;;;;;;;;;13.10;99.90;;;;;;5032959;28;20028;-65
2022/05/17 03:05:26;;;;;;;;;;;13.20;99.90;;;;;;5034756;28;20021;-65
2022/05/17 03:07:52;;;;;;;;;;;13.30;99.90;;;;;;5037360;28;19924;-64
2022/05/17 03:10:19;;;;;;;;;;;13.30;99.90;;;;;;5036781;28;20380;-64
2022/05/17 03:12:46;;;;;;;;;;;13.40;99.90;;;;;;5037510;28;20392;-64
2022/05/17 03:15:16;;;;;;;;;;;13.40;99.90;;;;;;5036743;28;19924;-64
2022/05/17 03:17:43;;;;;;;;;;;13.40;99.90;;;;;;5037144;28;19925;-65
2022/05/17 03:20:10;;;;;;;;;;;13.50;99.90;;;;;;5036716;28;19925;-65
2022/05/17 03:22:39;;;;;;;;;;;13.50;99.90;;;;;;5037092;28;20388;-64
2022/05/17 03:25:06;;;;;;;;;;;13.50;99.90;;;;;;5036580;28;19929;-65
2022/05/17 03:27:33;;;;;;;;;;;13.50;99.90;;;;;;5036844;28;19932;-65
2022/05/17 03:30:00;;;;;;;;;;;13.50;99.90;;;;;;5036310;28;19925;-64
2022/05/17 03:32:27;;;;;;;;;;;13.50;99.90;;;;;;5036769;28;19939;-65
2022/05/17 03:34:54;;;;;;;;;;;13.50;99.90;;;;;;5036445;28;19924;-64
2022/05/17 03:37:20;;;;;;;;;;;13.60;99.90;;;;;;5036813;28;19925;-65
2022/05/17 03:39:51;;;;;;;;;;;13.50;99.90;;;;;;5036302;28;19924;-64
2022/05/17 03:42:18;;;;;;;;;;;13.50;99.90;;;;;;5036416;28;19932;-65
2022/05/17 03:44:47;;;;;;;;;;;13.50;99.90;;;;;;5036205;28;19978;-65
2022/05/17 03:47:14;;;;;;;;;;;13.60;99.90;;;;;;5036503;28;19924;-65
2022/05/17 03:49:41;;;;;;;;;;;13.80;99.90;;;;;;5036206;28;19936;-64
2022/05/17 03:52:09;;;;;;;;;;;13.80;99.90;;;;;;5036544;28;19924;-65
2022/05/17 03:54:36;;;;;;;;;;;14.00;99.90;;;;;;5036078;28;20364;-65
2022/05/17 03:57:04;;;;;;;;;;;14.10;99.90;;;;;;5036320;28;19925;-64
2022/05/17 03:59:32;;;;;;;;;;;14.20;99.90;;;;;;5036154;28;19928;-65
2022/05/17 04:01:58;;;;;;;;;;;14.30;99.90;;;;;;5036426;28;20346;-65
2022/05/17 04:04:25;;;;;;;;;;;14.20;99.90;;;;;;5035968;28;19933;-63
2022/05/17 04:06:52;;;;;;;;;;;14.20;99.90;;;;;;5036291;28;19925;-65
2022/05/17 04:09:19;;;;;;;;;;;14.20;99.90;;;;;;5035937;28;19925;-65
2022/05/17 04:11:45;;;;;;;;;;;14.20;99.90;;;;;;5036215;28;20392;-65
2022/05/17 04:14:14;;;;;;;;;;;14.10;99.90;;;;;;5035771;28;20312;-65
2022/05/17 04:16:40;;;;;;;;;;;14.10;99.90;;;;;;5036049;28;19924;-64
2022/05/17 04:19:08;;;;;;;;;;;14.10;99.90;;;;;;5035826;28;20466;-64
2022/05/17 04:21:35;;;;;;;;;;;14.20;99.90;;;;;;5035915;28;19929;-65
2022/05/17 04:24:02;;;;;;;;;;;14.30;99.90;;;;;;5035685;28;19925;-64
2022/05/17 04:26:29;;;;;;;;;;;14.40;99.90;;;;;;5035829;28;19935;-64
2022/05/17 04:28:56;;;;;;;;;;;14.40;99.90;;;;;;5035743;28;19975;-64
2022/05/17 04:31:25;;;;;;;;;;;14.50;99.90;;;;;;5035697;28;19979;-65
2022/05/17 04:33:54;;;;;;;;;;;14.60;99.90;;;;;;5035544;28;20023;-65
2022/05/17 04:36:21;;;;;;;;;;;14.60;99.90;;;;;;5035811;28;19924;-64
2022/05/17 04:38:48;;;;;;;;;;;14.70;99.90;;;;;;5035423;28;19929;-64
2022/05/17 04:41:15;;;;;;;;;;;14.70;99.90;;;;;;5035905;28;19925;-64
2022/05/17 04:43:42;;;;;;;;;;;14.70;99.90;;;;;;5035427;28;19925;-64
2022/05/17 04:46:09;;;;;;;;;;;14.70;99.90;;;;;;5035762;28;19929;-65
2022/05/17 04:48:37;;;;;;;;;;;14.70;99.90;;;;;;5035579;28;19925;-65
2022/05/17 04:51:06;;;;;;;;;;;14.70;99.90;;;;;;5035267;28;19924;-65
2022/05/17 04:53:33;;;;;;;;;;;14.80;99.90;;;;;;5035552;28;19933;-64
2022/05/17 04:56:00;;;;;;;;;;;14.90;99.90;;;;;;5035672;28;19931;-64
2022/05/17 04:58:27;;;;;;;;;;;15.10;99.90;;;;;;5035502;28;19940;-65
2022/05/17 05:00:53;;;;;;;;;;;15.10;99.90;;;;;;5034835;28;20115;-65
2022/05/17 05:03:20;;;;;;;;;;;15.20;99.90;;;;;;5022994;28;20354;-64
2022/05/17 05:05:49;;;;;;;;;;;15.20;99.90;;;;;;5015076;28;19929;-68
2022/05/17 05:08:16;;;;;;;;;;;15.30;99.90;;;;;;5032285;28;19931;-64
2022/05/17 05:10:45;;;;;;;;;;;15.40;99.90;;;;;;5032366;28;19925;-65
2022/05/17 05:13:12;;;;;;;;;;;15.50;99.90;;;;;;5021741;28;19936;-64
2022/05/17 05:15:39;;;;;;;;;;;15.50;99.90;;;;;;5022345;28;19979;-65
2022/05/17 05:18:06;;;;;;;;;;;15.60;99.90;;;;;;5034815;28;19932;-65
2022/05/17 05:20:34;;;;;;;;;;;15.60;99.90;;;;;;5034346;28;19964;-66
2022/05/17 05:23:02;;;;;;;;;;;15.70;99.90;;;;;;5034981;28;20507;-64
2022/05/17 05:25:29;;;;;;;;;;;15.70;99.90;;;;;;5034555;28;19924;-64
2022/05/17 05:27:56;;;;;;;;;;;15.80;99.90;;;;;;5033845;28;19947;-65
2022/05/17 05:30:23;;;;;;;;;;;16.00;99.90;;;;;;5034232;28;19975;-65
2022/05/17 05:32:51;;;;;;;;;;;16.10;99.90;;;;;;5034556;28;19979;-65
2022/05/17 05:35:20;;;;;;;;;;;16.10;99.90;;;;;;5034242;28;19928;-66
2022/05/17 05:37:47;;;;;;;;;;;16.20;99.90;;;;;;5034268;28;20285;-66
2022/05/17 05:40:15;;;;;;;;;;;16.20;99.90;;;;;;5034253;28;19925;-65
2022/05/17 05:42:42;;;;;;;;;;;16.40;99.90;;;;;;5034399;28;19925;-65
2022/05/17 05:45:10;;;;;;;;;;;16.50;99.90;;;;;;5033831;28;20415;-66
2022/05/17 05:47:37;;;;;;;;;;;16.60;99.90;;;;;;5033896;28;19924;-66
2022/05/17 05:50:04;;;;;;;;;;;16.70;99.90;;;;;;5034234;28;20336;-66
2022/05/17 05:52:30;;;;;;;;;;;16.70;99.90;;;;;;5034190;28;19924;-65
2022/05/17 05:54:59;;;;;;;;;;;16.80;99.90;;;;;;5033872;28;19925;-67
2022/05/17 05:57:27;;;;;;;;;;;16.90;99.90;;;;;;5034275;28;19925;-65
2022/05/17 05:59:54;;;;;;;;;;;17.00;99.90;;;;;;5033408;28;19971;-65
2022/05/17 06:02:21;;;;;;;;;;;17.10;99.90;;;;;;5034056;28;20458;-66
2022/05/17 06:04:48;;;;;;;;;;;17.10;99.90;;;;;;5033561;28;19925;-66
2022/05/17 06:07:15;;;;;;;;;;;17.10;99.90;;;;;;5033708;28;19925;-66
2022/05/17 06:09:43;;;;;;;;;;;17.20;99.90;;;;;;5050114;28;19924;-66
2022/05/17 06:12:10;;;;;;;;;;;17.10;99.90;;;;;;5021682;28;19925;-66
2022/05/17 06:14:38;;;;;;;;;;;17.30;99.90;;;;;;5031412;28;19977;-66
2022/05/17 06:17:05;;;;;;;;;;;17.40;99.90;;;;;;5026464;28;19970;-66
2022/05/17 06:19:33;;;;;;;;;;;17.50;99.90;;;;;;5033172;28;19932;-66
2022/05/17 06:22:00;;;;;;;;;;;17.50;99.90;;;;;;5031485;28;19932;-66
2022/05/17 06:24:27;;;;;;;;;;;17.60;99.90;;;;;;5026503;28;19933;-65
2022/05/17 06:26:55;;;;;;;;;;;17.70;99.90;;;;;;5027423;28;19936;-65
2022/05/17 06:29:22;;;;;;;;;;;17.90;99.90;;;;;;5031509;28;20302;-65
2022/05/17 06:31:51;;;;;;;;;;;18.00;99.90;;;;;;5030329;28;19970;-65
2022/05/17 06:34:18;;;;;;;;;;;18.10;99.90;;;;;;5039721;28;19925;-65
2022/05/17 06:36:44;;;;;;;;;;;18.30;99.90;;;;;;5028844;28;19932;-65
2022/05/17 06:39:11;;;;;;;;;;;18.40;99.90;;;;;;5024898;28;19925;-65
2022/05/17 06:41:38;;;;;;;;;;;18.40;99.90;;;;;;5020038;28;19925;-65
2022/05/17 06:44:05;;;;;;;;;;;18.60;99.90;;;;;;5031393;28;20027;-65
2022/05/17 06:46:33;;;;;;;;;;;18.80;99.90;;;;;;5013838;28;19925;-65
2022/05/17 06:49:01;;;;;;;;;;;19.10;99.90;;;;;;5013194;28;20385;-65
2022/05/17 06:51:28;;;;;;;;;;;19.30;99.90;;;;;;5013649;28;19929;-65
2022/05/17 06:53:55;;;;;;;;;;;19.70;99.90;;;;;;5022770;28;20396;-65
2022/05/17 06:56:22;;;;;;;;;;;19.90;99.90;;;;;;5028476;28;19924;-65
2022/05/17 06:58:49;;;;;;;;;;;20.20;99.90;;;;;;5032847;28;19932;-67
2022/05/17 07:01:16;;;;;;;;;;;20.40;99.90;;;;;;5033309;28;19925;-65
2022/05/17 07:03:43;;;;;;;;;;;20.60;99.90;;;;;;5032456;28;19931;-66
2022/05/17 07:06:11;;;;;;;;;;;20.70;99.90;;;;;;5033101;28;19932;-65
2022/05/17 07:08:38;;;;;;;;;;;20.80;99.90;;;;;;5032735;28;20289;-65
2022/05/17 07:13:47;;;;;;;;;;;20.80;99.90;;;;;;4999112;28;19928;-66
2022/05/17 07:16:14;;;;;;;;;;;21.00;99.90;;;;;;5022853;28;20020;-65
2022/05/17 07:18:42;;;;;;;;;;;21.00;99.90;;;;;;5032733;28;19925;-65
2022/05/17 07:21:11;;;;;;;;;;;20.90;99.90;;;;;;5032712;28;19929;-65
2022/05/17 07:23:38;;;;;;;;;;;21.00;99.90;;;;;;5032539;28;19931;-65
2022/05/17 07:26:05;;;;;;;;;;;21.10;99.90;;;;;;5032946;28;19932;-65
2022/05/17 07:28:32;;;;;;;;;;;21.10;99.90;;;;;;5032607;28;20400;-65
2022/05/17 07:30:59;;;;;;;;;;;21.00;99.90;;;;;;5032664;28;19929;-65
2022/05/17 07:33:27;;;;;;;;;;;21.10;99.90;;;;;;5026501;28;20020;-65
2022/05/17 07:35:54;;;;;;;;;;;21.20;99.90;;;;;;5041539;28;20459;-65
2022/05/17 07:38:23;;;;;;;;;;;21.30;99.90;;;;;;5012933;28;20401;-65
2022/05/17 07:40:51;;;;;;;;;;;21.40;99.90;;;;;;5012633;28;19976;-65
2022/05/17 07:43:18;;;;;;;;;;;21.50;99.90;;;;;;5012788;28;19925;-65
2022/05/17 07:45:47;;;;;;;;;;;21.50;99.90;;;;;;5012787;28;19932;-65
2022/05/17 07:48:16;;;;;;;;;;;21.40;99.90;;;;;;5013055;28;20300;-64
2022/05/17 07:50:43;;;;;;;;;;;21.40;99.90;;;;;;5013276;28;19925;-65
2022/05/17 07:53:10;;;;;;;;;;;21.40;99.90;;;;;;5016424;28;19929;-65
2022/05/17 07:55:39;;;;;;;;;;;21.30;99.90;;;;;;5016373;28;19936;-65
2022/05/17 07:58:07;;;;;;;;;;;21.50;99.90;;;;;;5016391;28;19925;-65
2022/05/17 08:00:34;;;;;;;;;;;21.70;99.90;;;;;;5016421;28;19948;-66
2022/05/17 08:03:01;;;;;;;;;;;21.80;99.90;;;;;;5016291;28;20344;-66
2022/05/17 08:05:29;;;;;;;;;;;22.10;99.90;;;;;;5015973;28;19941;-66
2022/05/17 08:07:56;;;;;;;;;;;22.30;99.90;;;;;;5016326;28;19932;-66
2022/05/17 08:10:22;;;;;;;;;;;22.60;99.90;;;;;;5018072;28;19932;-66
2022/05/17 08:12:51;;;;;;;;;;;22.80;99.90;;;;;;5035849;28;19960;-66
2022/05/17 08:15:19;;;;;;;;;;;23.00;99.90;;;;;;5035739;28;19940;-66
2022/05/17 08:17:47;;;;;;;;;;;23.20;99.90;;;;;;5052469;28;19960;-66
2022/05/17 08:20:14;;;;;;;;;;;23.20;99.90;;;;;;5035620;28;20445;-66
2022/05/17 08:22:42;;;;;;;;;;;23.20;99.90;;;;;;5035828;28;19931;-65
2022/05/17 08:27:55;;;;;;;;;;;23.00;99.90;;;;;;5035617;28;19920;-66
2022/05/17 08:30:23;;;;;;;;;;;23.10;99.90;;;;;;5035349;28;19932;-66
2022/05/17 08:35:36;;;;;;;;;;;23.00;99.90;;;;;;5035235;28;19929;-66
2022/05/17 08:38:03;;;;;;;;;;;23.10;99.90;;;;;;5035545;28;20339;-66
2022/05/17 08:40:31;;;;;;;;;;;23.40;99.90;;;;;;5035430;28;19971;-64
2022/05/17 08:43:08;;;;;;;;;;;23.60;99.90;;;;;;5035421;28;19953;-66
2022/05/17 08:45:39;;;;;;;;;;;23.60;99.90;;;;;;5035091;28;20363;-66
2022/05/17 08:48:09;;;;;;;;;;;23.60;99.90;;;;;;5035445;28;19925;-66
2022/05/17 08:50:38;;;;;;;;;;;23.80;99.90;;;;;;5035092;28;19929;-66
2022/05/17 08:53:05;;;;;;;;;;;23.90;99.90;;;;;;5035314;28;19925;-66
2022/05/17 08:55:34;;;;;;;;;;;23.90;99.90;;;;;;5035064;28;19925;-66
2022/05/17 08:58:06;;;;;;;;;;;24.00;99.90;;;;;;5035225;28;19925;-65
2022/05/17 09:00:36;;;;;;;;;;;23.90;99.90;;;;;;5035240;28;19931;-66
2022/05/17 09:03:06;;;;;;;;;;;24.00;99.90;;;;;;5051118;28;19924;-66
2022/05/17 09:05:35;;;;;;;;;;;24.10;99.90;;;;;;5035198;28;19928;-66
2022/05/17 09:08:09;;;;;;;;;;;24.20;99.90;;;;;;5051703;28;20028;-66
2022/05/17 09:10:36;;;;;;;;;;;24.30;99.90;;;;;;5050993;28;19971;-66
2022/05/17 09:13:07;;;;;;;;;;;24.30;99.90;;;;;;5034713;28;19979;-66
2022/05/17 09:15:34;;;;;;;;;;;24.30;99.90;;;;;;5034517;28;19931;-66
2022/05/17 09:18:03;;;;;;;;;;;24.30;99.90;;;;;;5033984;28;19929;-66
2022/05/17 09:20:33;;;;;;;;;;;24.30;99.90;;;;;;5027330;28;19929;-66
2022/05/17 09:23:00;;;;;;;;;;;24.50;99.90;;;;;;5022683;28;19929;-66
2022/05/17 09:25:28;;;;;;;;;;;24.50;99.90;;;;;;5034156;28;20381;-65
2022/05/17 09:27:56;;;;;;;;;;;24.50;99.90;;;;;;5034464;28;19936;-66
2022/05/17 09:30:31;;;;;;;;;;;24.10;99.90;;;;;;5033534;28;19935;-65
2022/05/17 09:33:00;;;;;;;;;;;23.90;99.90;;;;;;5027518;28;19925;-66
2022/05/17 09:35:28;;;;;;;;;;;24.00;99.90;;;;;;5029635;28;19925;-65
2022/05/17 09:37:58;;;;;;;;;;;24.30;99.90;;;;;;5032130;28;19931;-66
2022/05/17 09:40:26;;;;;;;;;;;24.60;99.90;;;;;;5022784;28;20356;-66
2022/05/17 09:42:54;;;;;;;;;;;25.00;99.90;;;;;;5014774;28;19979;-66
2022/05/17 09:45:36;;;;;;;;;;;25.20;99.90;;;;;;5014135;28;19925;-66
2022/05/17 09:48:06;;;;;;;;;;;25.50;99.90;;;;;;5014595;28;19925;-66
2022/05/17 09:53:42;;;;;;;;;;;25.60;99.90;;;;;;4973455;28;20532;-66
2022/05/17 09:56:09;;;;;;;;;;;26.10;99.90;;;;;;5006613;28;19925;-66
2022/05/17 09:58:38;;;;;;;;;;;26.20;99.90;;;;;;5012180;28;19937;-64
2022/05/17 10:01:11;;;;;;;;;;;26.20;99.90;;;;;;5028571;28;19932;-65
2022/05/17 10:03:41;;;;;;;;;;;26.70;99.90;;;;;;5021690;28;20475;-66
2022/05/17 10:06:09;;;;;;;;;;;27.00;99.90;;;;;;5014344;28;19925;-65
2022/05/17 10:08:39;;;;;;;;;;;27.00;99.90;;;;;;5013777;28;19952;-66
2022/05/17 10:11:07;;;;;;;;;;;27.10;99.90;;;;;;5020975;28;19925;-66
2022/05/17 10:13:36;;;;;;;;;;;26.80;99.90;;;;;;5032809;28;19971;-67
2022/05/17 10:16:06;;;;;;;;;;;26.70;99.90;;;;;;5021758;28;19929;-65
2022/05/17 10:18:36;;;;;;;;;;;26.50;99.90;;;;;;5026634;28;20359;-65
2022/05/17 10:21:10;;;;;;;;;;;26.10;99.90;;;;;;5029407;28;19925;-65
2022/05/17 10:23:40;;;;;;;;;;;26.00;99.90;;;;;;5033234;28;20354;-66
2022/05/17 10:26:08;;;;;;;;;;;26.30;99.90;;;;;;5033560;28;19924;-65
2022/05/17 10:28:39;;;;;;;;;;;26.60;99.90;;;;;;5033150;28;20347;-65
2022/05/17 10:31:11;;;;;;;;;;;26.90;99.90;;;;;;5032833;28;19924;-65
2022/05/17 10:33:44;;;;;;;;;;;27.10;99.90;;;;;;5032652;28;19929;-65
2022/05/17 10:36:16;;;;;;;;;;;27.40;99.90;;;;;;5033228;28;20014;-65
2022/05/17 10:38:54;;;;;;;;;;;27.60;99.90;;;;;;5033206;28;19932;-65
2022/05/17 10:41:24;;;;;;;;;;;27.60;99.90;;;;;;5032990;28;20498;-64
2022/05/17 10:43:50;;;;;;;;;;;27.80;99.90;;;;;;5050772;28;20047;-65
2022/05/17 10:46:19;;;;;;;;;;;27.90;99.90;;;;;;5033110;28;19935;-66
2022/05/17 10:48:49;;;;;;;;;;;28.20;99.90;;;;;;5033149;28;19953;-65
2022/05/17 10:51:21;;;;;;;;;;;28.60;99.90;;;;;;5032909;28;20037;-66
2022/05/17 10:53:58;;;;;;;;;;;28.50;99.90;;;;;;5029361;28;20020;-67
2022/05/17 10:56:30;;;;;;;;;;;28.70;99.90;;;;;;5029668;28;19925;-67
2022/05/17 10:59:02;;;;;;;;;;;28.60;99.90;;;;;;5029386;28;19931;-66
2022/05/17 11:01:32;;;;;;;;;;;29.00;99.90;;;;;;5029555;28;19925;-67
2022/05/17 11:04:06;;;;;;;;;;;29.10;99.90;;;;;;5029361;28;19932;-67
2022/05/17 11:06:37;;;;;;;;;;;28.90;99.90;;;;;;5029684;28;19940;-67
2022/05/17 11:09:08;;;;;;;;;;;28.60;99.90;;;;;;5029257;28;19971;-66
2022/05/17 11:11:50;;;;;;;;;;;28.50;99.90;;;;;;5032752;28;19936;-67
2022/05/17 11:14:21;;;;;;;;;;;28.40;99.90;;;;;;5032450;28;19925;-66
2022/05/17 11:16:52;;;;;;;;;;;28.60;99.90;;;;;;5032958;28;20392;-67
2022/05/17 11:19:21;;;;;;;;;;;29.10;99.90;;;;;;5032490;28;20396;-67
2022/05/17 11:21:52;;;;;;;;;;;29.50;99.90;;;;;;5048974;28;19925;-66
2022/05/17 11:24:25;;;;;;;;;;;29.50;99.90;;;;;;5049298;28;19925;-66
2022/05/17 11:27:01;;;;;;;;;;;29.70;99.90;;;;;;5035387;28;20297;-67
2022/05/17 11:29:46;;;;;;;;;;;29.90;99.90;;;;;;5036446;28;20023;-66
2022/05/17 11:32:17;;;;;;;;;;;29.60;99.90;;;;;;5035828;28;20303;-66
2022/05/17 11:34:45;;;;;;;;;;;29.20;99.90;;;;;;5035980;28;19924;-67
2022/05/17 11:37:27;;;;;;;;;;;29.10;99.90;;;;;;5030618;28;20523;-68
2022/05/17 11:39:55;;;;;;;;;;;29.50;99.90;;;;;;5041230;28;19932;-66
2022/05/17 11:42:27;;;;;;;;;;;29.70;99.90;;;;;;5024280;28;19935;-67
2022/05/17 11:44:55;;;;;;;;;;;30.10;99.90;;;;;;5029998;28;19978;-66
2022/05/17 11:47:27;;;;;;;;;;;30.80;99.90;;;;;;5033498;28;19932;-69
2022/05/17 11:50:14;;;;;;;;;;;31.30;99.90;;;;;;5030764;28;19925;-64
2022/05/17 11:52:42;;;;;;;;;;;31.90;99.90;;;;;;5020418;28;19925;-66
2022/05/17 11:55:11;;;;;;;;;;;32.70;99.90;;;;;;5016161;28;19999;-66
2022/05/17 11:58:04;;;;;;;;;;;34.00;99.90;;;;;;5016512;28;19925;-66
2022/05/17 12:00:41;;;;;;;;;;;34.90;99.90;;;;;;5028214;28;20023;-66
2022/05/17 12:03:19;;;;;;;;;;;35.60;99.90;;;;;;5016481;28;20357;-66
2022/05/17 12:05:56;;;;;;;;;;;36.50;99.90;;;;;;5016068;28;20424;-67
2022/05/17 12:08:30;;;;;;;;;;;37.40;99.90;;;;;;5016287;28;19971;-66
2022/05/17 12:11:02;;;;;;;;;;;37.20;99.90;;;;;;5022466;28;19960;-66
2022/05/17 12:13:29;;;;;;;;;;;35.40;99.90;;;;;;5035728;28;19944;-66
2022/05/17 12:15:56;;;;;;;;;;;34.10;99.90;;;;;;5035731;28;20297;-67
2022/05/17 12:18:31;;;;;;;;;;;32.80;99.90;;;;;;5035992;28;20343;-66
2022/05/17 12:21:08;;;;;;;;;;;32.00;99.90;;;;;;5033023;28;20336;-66
2022/05/17 12:23:38;;;;;;;;;;;31.30;99.90;;;;;;5024058;28;19929;-66
2022/05/17 12:26:08;;;;;;;;;;;31.00;99.90;;;;;;5035984;28;19964;-67
2022/05/17 12:28:38;;;;;;;;;;;32.10;99.90;;;;;;5035758;28;19937;-66
2022/05/17 12:31:06;;;;;;;;;;;33.90;99.90;;;;;;5035633;28;19986;-66
2022/05/17 12:33:34;;;;;;;;;;;33.90;99.90;;;;;;5035357;28;19920;-66
2022/05/17 12:36:12;;;;;;;;;;;33.40;99.90;;;;;;5033017;28;19925;-66
2022/05/17 12:44:13;;;;;;;;;;;33.00;99.90;;;;;;5033568;28;19967;-67
2022/05/17 12:46:41;;;;;;;;;;;32.40;99.90;;;;;;5035517;28;19924;-68
2022/05/17 12:49:13;;;;;;;;;;;33.80;99.90;;;;;;5035029;28;19929;-68
2022/05/17 12:51:41;;;;;;;;;;;34.80;99.90;;;;;;5035341;28;19925;-65
2022/05/17 12:54:10;;;;;;;;;;;36.00;99.90;;;;;;5034967;28;19931;-66
2022/05/17 12:56:43;;;;;;;;;;;35.10;99.90;;;;;;5035400;28;19928;-66
2022/05/17 12:59:11;;;;;;;;;;;34.90;99.90;;;;;;5068383;28;19924;-66
2022/05/17 13:01:39;;;;;;;;;;;36.10;99.90;;;;;;5048271;28;19924;-78
2022/05/17 13:04:08;;;;;;;;;;;35.50;99.90;;;;;;5021677;28;19925;-66
2022/05/17 13:06:36;;;;;;;;;;;35.30;99.90;;;;;;5015315;28;19929;-66
2022/05/17 13:09:06;;;;;;;;;;;35.70;99.90;;;;;;5014374;28;19932;-66
2022/05/17 13:11:33;;;;;;;;;;;36.20;99.90;;;;;;5025540;28;19929;-66
2022/05/17 13:14:09;;;;;;;;;;;36.80;99.90;;;;;;5034952;28;19925;-66
2022/05/17 13:16:37;;;;;;;;;;;37.00;99.90;;;;;;5026931;28;19964;-66
2022/05/17 13:19:05;;;;;;;;;;;36.30;99.90;;;;;;5056471;28;19994;-66
2022/05/17 13:21:33;;;;;;;;;;;35.90;99.90;;;;;;5032313;28;19979;-66
2022/05/17 13:24:01;;;;;;;;;;;35.50;99.90;;;;;;5037245;28;19925;-66
2022/05/17 13:26:30;;;;;;;;;;;34.70;99.90;;;;;;5013025;28;19925;-66
2022/05/17 13:28:57;;;;;;;;;;;34.80;99.90;;;;;;5012722;28;19933;-66
2022/05/17 13:31:26;;;;;;;;;;;35.70;99.90;;;;;;5012911;28;19925;-66
2022/05/17 13:33:55;;;;;;;;;;;35.70;99.90;;;;;;5014054;28;20335;-66
2022/05/17 13:36:31;;;;;;;;;;;35.90;99.90;;;;;;5014714;28;19925;-67
2022/05/17 13:38:57;;;;;;;;;;;36.40;99.90;;;;;;5014314;28;19936;-66
2022/05/17 13:41:32;;;;;;;;;;;36.30;99.90;;;;;;5014671;28;19925;-66
2022/05/17 13:44:00;;;;;;;;;;;37.10;99.90;;;;;;5014250;28;19926;-66
2022/05/17 13:46:30;;;;;;;;;;;38.00;99.90;;;;;;5014881;28;19925;-67
2022/05/17 13:49:02;;;;;;;;;;;36.60;99.90;;;;;;5013889;28;19925;-66
2022/05/17 13:51:33;;;;;;;;;;;37.20;99.90;;;;;;5014525;28;19929;-66
2022/05/17 13:54:02;;;;;;;;;;;37.80;99.90;;;;;;5014310;28;19975;-66
2022/05/17 13:56:31;;;;;;;;;;;39.00;99.90;;;;;;5014222;28;19976;-67
2022/05/17 13:59:00;;;;;;;;;;;39.20;99.90;;;;;;5014400;28;19937;-66
2022/05/17 14:01:32;;;;;;;;;;;39.30;99.90;;;;;;5014562;28;19971;-66
2022/05/17 14:04:03;;;;;;;;;;;38.00;99.90;;;;;;5013973;28;19929;-66
2022/05/17 14:06:41;;;;;;;;;;;37.10;99.90;;;;;;5014674;28;20351;-66
2022/05/17 14:11:55;;;;;;;;;;;38.60;99.90;;;;;;5028642;28;19924;-66
2022/05/17 14:14:23;;;;;;;;;;;39.40;99.90;;;;;;5033601;28;19978;-67
2022/05/17 14:16:53;;;;;;;;;;;40.00;99.90;;;;;;5034012;28;19928;-67
2022/05/17 14:19:21;;;;;;;;;;;40.10;99.90;;;;;;5033523;28;19925;-66
2022/05/17 14:21:52;;;;;;;;;;;39.80;99.90;;;;;;5033668;28;20392;-67
2022/05/17 14:24:19;;;;;;;;;;;38.90;99.90;;;;;;5033488;28;20327;-66
2022/05/17 14:26:48;;;;;;;;;;;37.40;99.90;;;;;;5033708;28;19925;-66
2022/05/17 14:29:16;;;;;;;;;;;36.80;99.90;;;;;;5033184;28;19982;-66
2022/05/17 14:31:44;;;;;;;;;;;37.30;99.90;;;;;;5033827;28;19924;-66
2022/05/17 14:34:14;;;;;;;;;;;38.30;99.90;;;;;;5032939;28;19933;-66
2022/05/17 14:36:42;;;;;;;;;;;38.00;99.90;;;;;;5033624;28;19971;-66
2022/05/17 14:39:09;;;;;;;;;;;37.20;99.90;;;;;;5033117;28;19929;-66
2022/05/17 14:41:36;;;;;;;;;;;36.60;99.90;;;;;;5033383;28;19933;-66
2022/05/17 14:44:03;;;;;;;;;;;35.50;99.90;;;;;;5033333;28;19928;-66